Delta, Louisiana
Current Conditions -  °F | °C
As of 8:35 PM on Sunday 21 Dec 2014 (Local Time) from KVKS Reporting Station
Clear Clear  
Wind Chill: 52°   Ceiling: Unl
Heat Index: 52°   Visibility: 10mi
Dew Point: 46°   Wind: 6mph
Humidity: 82%   Direction: 120°ESE
Pressure: 29.96"   Gusts: NA
Location:  32.33°N, 90.93°W
Report Text: KVKS 220235Z AUTO 12005KT 10SM CLR 11/08 A2996 RMK A01
Loading
Personal Weather Stations






























Interactive Weather Map New forecast layout! Learn more

10-Day Weather Forecast

Advertisements
Track Severe Weather on mobile